sensor_id;sensor_type;location;lat;lon;timestamp;pressure;altitude;pressure_sealevel;temperature;humidity
47636;BME280;33364;50.766;15.338;2023-04-04T00:01:31;95720.09;;;-3.07;57.41
47636;BME280;33364;50.766;15.338;2023-04-04T00:03:56;95721.03;;;-2.99;57.46
47636;BME280;33364;50.766;15.338;2023-04-04T00:06:23;95714.59;;;-3.04;57.81
47636;BME280;33364;50.766;15.338;2023-04-04T00:08:49;95713.41;;;-3.10;58.12
47636;BME280;33364;50.766;15.338;2023-04-04T00:11:14;95716.53;;;-3.06;58.68
47636;BME280;33364;50.766;15.338;2023-04-04T00:13:40;95707.66;;;-3.14;59.00
47636;BME280;33364;50.766;15.338;2023-04-04T00:16:06;95706.53;;;-3.01;59.72
47636;BME280;33364;50.766;15.338;2023-04-04T00:18:32;95695.47;;;-3.03;60.40
47636;BME280;33364;50.766;15.338;2023-04-04T00:20:58;95697.66;;;-3.08;60.52
47636;BME280;33364;50.766;15.338;2023-04-04T00:23:24;95697.53;;;-3.07;60.76
47636;BME280;33364;50.766;15.338;2023-04-04T00:25:50;95702.69;;;-2.97;61.25
47636;BME280;33364;50.766;15.338;2023-04-04T00:28:18;95699.28;;;-3.07;61.81
47636;BME280;33364;50.766;15.338;2023-04-04T00:30:44;95693.41;;;-3.09;61.91
47636;BME280;33364;50.766;15.338;2023-04-04T00:33:09;95693.03;;;-3.15;62.27
47636;BME280;33364;50.766;15.338;2023-04-04T00:35:35;95688.78;;;-3.16;63.20
47636;BME280;33364;50.766;15.338;2023-04-04T00:38:01;95684.28;;;-3.14;62.69
47636;BME280;33364;50.766;15.338;2023-04-04T00:40:27;95685.91;;;-3.13;63.08
47636;BME280;33364;50.766;15.338;2023-04-04T00:42:53;95681.41;;;-3.10;63.54
47636;BME280;33364;50.766;15.338;2023-04-04T00:45:19;95683.28;;;-3.03;63.28
47636;BME280;33364;50.766;15.338;2023-04-04T00:47:45;95678.34;;;-3.06;63.56
47636;BME280;33364;50.766;15.338;2023-04-04T00:50:12;95679.03;;;-3.04;64.86
47636;BME280;33364;50.766;15.338;2023-04-04T00:52:37;95680.66;;;-3.03;63.88
47636;BME280;33364;50.766;15.338;2023-04-04T00:55:04;95678.22;;;-3.04;63.99
47636;BME280;33364;50.766;15.338;2023-04-04T00:57:32;95672.34;;;-3.06;63.91
47636;BME280;33364;50.766;15.338;2023-04-04T00:59:59;95671.09;;;-3.02;65.24
47636;BME280;33364;50.766;15.338;2023-04-04T01:02:27;95675.56;;;-2.95;65.59
47636;BME280;33364;50.766;15.338;2023-04-04T01:04:53;95661.22;;;-2.99;64.83
47636;BME280;33364;50.766;15.338;2023-04-04T01:07:19;95659.88;;;-3.03;65.38
47636;BME280;33364;50.766;15.338;2023-04-04T01:09:44;95656.28;;;-2.92;66.54
47636;BME280;33364;50.766;15.338;2023-04-04T01:12:10;95651.75;;;-2.90;65.70
47636;BME280;33364;50.766;15.338;2023-04-04T01:14:36;95654.09;;;-2.97;66.13
47636;BME280;33364;50.766;15.338;2023-04-04T01:17:02;95652.91;;;-3.02;66.27
47636;BME280;33364;50.766;15.338;2023-04-04T01:19:35;95652.22;;;-3.04;67.18
47636;BME280;33364;50.766;15.338;2023-04-04T01:22:04;95651.81;;;-3.09;67.70
47636;BME280;33364;50.766;15.338;2023-04-04T01:24:32;95643.63;;;-3.15;68.03
47636;BME280;33364;50.766;15.338;2023-04-04T01:26:59;95647.00;;;-3.04;67.50
47636;BME280;33364;50.766;15.338;2023-04-04T01:29:25;95647.53;;;-2.91;67.54
47636;BME280;33364;50.766;15.338;2023-04-04T01:32:17;95643.56;;;-2.95;67.17
47636;BME280;33364;50.766;15.338;2023-04-04T01:35:20;95639.72;;;-2.91;67.12
47636;BME280;33364;50.766;15.338;2023-04-04T01:40:31;95638.03;;;-2.82;67.01
47636;BME280;33364;50.766;15.338;2023-04-04T01:43:02;95639.59;;;-2.71;67.32
47636;BME280;33364;50.766;15.338;2023-04-04T01:45:28;95635.91;;;-2.69;66.81
47636;BME280;33364;50.766;15.338;2023-04-04T01:47:55;95637.13;;;-2.63;66.46
47636;BME280;33364;50.766;15.338;2023-04-04T01:50:23;95635.06;;;-2.60;67.19
47636;BME280;33364;50.766;15.338;2023-04-04T01:52:50;95630.13;;;-2.63;67.56
47636;BME280;33364;50.766;15.338;2023-04-04T01:55:16;95629.63;;;-2.66;67.32
47636;BME280;33364;50.766;15.338;2023-04-04T01:57:42;95630.56;;;-2.67;67.82
47636;BME280;33364;50.766;15.338;2023-04-04T02:00:08;95634.41;;;-2.71;67.30
47636;BME280;33364;50.766;15.338;2023-04-04T02:02:34;95634.03;;;-2.77;67.47
47636;BME280;33364;50.766;15.338;2023-04-04T02:04:59;95635.09;;;-2.69;66.82
47636;BME280;33364;50.766;15.338;2023-04-04T02:07:25;95637.84;;;-2.71;67.23
47636;BME280;33364;50.766;15.338;2023-04-04T02:09:51;95634.56;;;-2.73;67.59
47636;BME280;33364;50.766;15.338;2023-04-04T02:12:17;95634.25;;;-2.70;67.40
47636;BME280;33364;50.766;15.338;2023-04-04T02:14:43;95635.47;;;-2.64;67.55
47636;BME280;33364;50.766;15.338;2023-04-04T02:17:09;95626.03;;;-2.65;66.61
47636;BME280;33364;50.766;15.338;2023-04-04T02:19:35;95634.53;;;-2.63;67.92
47636;BME280;33364;50.766;15.338;2023-04-04T02:22:01;95628.88;;;-2.59;67.91
47636;BME280;33364;50.766;15.338;2023-04-04T02:24:27;95625.75;;;-2.62;68.37
47636;BME280;33364;50.766;15.338;2023-04-04T02:26:53;95624.41;;;-2.66;68.81
47636;BME280;33364;50.766;15.338;2023-04-04T02:29:18;95616.97;;;-2.61;68.07
47636;BME280;33364;50.766;15.338;2023-04-04T02:31:44;95624.41;;;-2.66;67.85
47636;BME280;33364;50.766;15.338;2023-04-04T02:34:10;95629.38;;;-2.73;67.67
47636;BME280;33364;50.766;15.338;2023-04-04T02:36:36;95625.28;;;-2.75;67.26
47636;BME280;33364;50.766;15.338;2023-04-04T02:39:02;95622.91;;;-2.69;68.51
47636;BME280;33364;50.766;15.338;2023-04-04T02:41:29;95626.78;;;-2.73;66.87
47636;BME280;33364;50.766;15.338;2023-04-04T02:43:54;95623.09;;;-2.80;66.89
47636;BME280;33364;50.766;15.338;2023-04-04T02:46:20;95627.19;;;-2.78;67.83
47636;BME280;33364;50.766;15.338;2023-04-04T02:48:46;95621.03;;;-2.77;67.99
47636;BME280;33364;50.766;15.338;2023-04-04T02:51:12;95621.13;;;-2.68;68.17
47636;BME280;33364;50.766;15.338;2023-04-04T02:53:37;95617.34;;;-2.56;67.89
47636;BME280;33364;50.766;15.338;2023-04-04T02:56:05;95619.66;;;-2.53;67.82
47636;BME280;33364;50.766;15.338;2023-04-04T02:58:30;95620.91;;;-2.57;67.57
47636;BME280;33364;50.766;15.338;2023-04-04T03:00:57;95626.94;;;-2.56;68.71
47636;BME280;33364;50.766;15.338;2023-04-04T03:03:22;95615.63;;;-2.65;66.94
47636;BME280;33364;50.766;15.338;2023-04-04T03:05:49;95622.91;;;-2.69;66.98
47636;BME280;33364;50.766;15.338;2023-04-04T03:08:15;95619.84;;;-2.82;66.58
47636;BME280;33364;50.766;15.338;2023-04-04T03:10:41;95619.59;;;-2.89;67.31
47636;BME280;33364;50.766;15.338;2023-04-04T03:13:07;95615.19;;;-2.88;67.57
47636;BME280;33364;50.766;15.338;2023-04-04T03:15:33;95614.38;;;-2.89;66.13
47636;BME280;33364;50.766;15.338;2023-04-04T03:18:01;95614.00;;;-2.94;67.09
47636;BME280;33364;50.766;15.338;2023-04-04T03:20:28;95613.16;;;-2.95;67.05
47636;BME280;33364;50.766;15.338;2023-04-04T03:22:53;95625.06;;;-2.92;66.30
47636;BME280;33364;50.766;15.338;2023-04-04T03:25:19;95620.53;;;-2.90;65.39
47636;BME280;33364;50.766;15.338;2023-04-04T03:27:45;95618.78;;;-2.99;65.82
47636;BME280;33364;50.766;15.338;2023-04-04T03:30:11;95623.91;;;-3.07;66.26
47636;BME280;33364;50.766;15.338;2023-04-04T03:32:37;95624.59;;;-3.05;65.47
47636;BME280;33364;50.766;15.338;2023-04-04T03:35:07;95627.47;;;-3.08;65.28
47636;BME280;33364;50.766;15.338;2023-04-04T03:37:33;95626.84;;;-3.20;65.85
47636;BME280;33364;50.766;15.338;2023-04-04T03:39:59;95629.88;;;-3.25;65.36
47636;BME280;33364;50.766;15.338;2023-04-04T03:42:25;95629.72;;;-3.23;65.76
47636;BME280;33364;50.766;15.338;2023-04-04T03:44:52;95615.34;;;-3.27;65.28
47636;BME280;33364;50.766;15.338;2023-04-04T03:47:20;95613.41;;;-3.16;64.72
47636;BME280;33364;50.766;15.338;2023-04-04T03:49:46;95610.69;;;-3.24;64.37
47636;BME280;33364;50.766;15.338;2023-04-04T03:52:11;95613.84;;;-3.20;65.38
47636;BME280;33364;50.766;15.338;2023-04-04T03:54:37;95617.44;;;-3.31;63.90
47636;BME280;33364;50.766;15.338;2023-04-04T03:57:04;95616.78;;;-3.43;63.90
47636;BME280;33364;50.766;15.338;2023-04-04T03:59:30;95612.44;;;-3.52;64.73
47636;BME280;33364;50.766;15.338;2023-04-04T04:01:56;95608.88;;;-3.51;64.80
47636;BME280;33364;50.766;15.338;2023-04-04T04:04:22;95614.31;;;-3.44;64.69
47636;BME280;33364;50.766;15.338;2023-04-04T04:06:47;95616.38;;;-3.38;64.66
47636;BME280;33364;50.766;15.338;2023-04-04T04:09:14;95613.75;;;-3.28;65.55
47636;BME280;33364;50.766;15.338;2023-04-04T04:11:39;95629.63;;;-3.32;64.05
47636;BME280;33364;50.766;15.338;2023-04-04T04:14:05;95621.09;;;-3.24;64.79
47636;BME280;33364;50.766;15.338;2023-04-04T04:16:31;95618.94;;;-3.28;63.64
47636;BME280;33364;50.766;15.338;2023-04-04T04:18:57;95618.78;;;-3.27;64.44
47636;BME280;33364;50.766;15.338;2023-04-04T04:21:23;95621.13;;;-3.34;64.10
47636;BME280;33364;50.766;15.338;2023-04-04T04:23:51;95617.19;;;-3.38;64.72
47636;BME280;33364;50.766;15.338;2023-04-04T04:26:17;95616.66;;;-3.41;64.04
47636;BME280;33364;50.766;15.338;2023-04-04T04:28:44;95620.06;;;-3.41;64.31
47636;BME280;33364;50.766;15.338;2023-04-04T04:31:10;95625.53;;;-3.44;64.62
47636;BME280;33364;50.766;15.338;2023-04-04T04:33:36;95622.38;;;-3.38;66.31
47636;BME280;33364;50.766;15.338;2023-04-04T04:36:02;95624.69;;;-3.35;64.50
47636;BME280;33364;50.766;15.338;2023-04-04T04:38:29;95619.91;;;-3.39;63.76
47636;BME280;33364;50.766;15.338;2023-04-04T04:40:55;95629.09;;;-3.45;63.65
47636;BME280;33364;50.766;15.338;2023-04-04T04:43:22;95628.53;;;-3.48;64.07
47636;BME280;33364;50.766;15.338;2023-04-04T04:45:48;95625.66;;;-3.45;64.39
47636;BME280;33364;50.766;15.338;2023-04-04T04:48:16;95621.44;;;-3.46;63.89
47636;BME280;33364;50.766;15.338;2023-04-04T04:50:45;95628.94;;;-3.43;64.34
47636;BME280;33364;50.766;15.338;2023-04-04T04:53:14;95625.38;;;-3.42;64.46
47636;BME280;33364;50.766;15.338;2023-04-04T04:55:40;95621.16;;;-3.43;64.27
47636;BME280;33364;50.766;15.338;2023-04-04T04:58:09;95612.53;;;-3.44;63.35
47636;BME280;33364;50.766;15.338;2023-04-04T05:00:36;95613.94;;;-3.49;63.68
47636;BME280;33364;50.766;15.338;2023-04-04T05:03:03;95615.16;;;-3.54;64.55
47636;BME280;33364;50.766;15.338;2023-04-04T05:05:34;95612.00;;;-3.47;65.59
47636;BME280;33364;50.766;15.338;2023-04-04T05:08:00;95617.44;;;-3.31;65.63
47636;BME280;33364;50.766;15.338;2023-04-04T05:10:27;95612.34;;;-3.23;64.83
47636;BME280;33364;50.766;15.338;2023-04-04T05:12:53;95608.97;;;-3.33;63.37
47636;BME280;33364;50.766;15.338;2023-04-04T05:15:18;95611.88;;;-3.46;64.17
47636;BME280;33364;50.766;15.338;2023-04-04T05:17:45;95616.41;;;-3.58;63.77
47636;BME280;33364;50.766;15.338;2023-04-04T05:20:11;95630.06;;;-3.56;64.61
47636;BME280;33364;50.766;15.338;2023-04-04T05:22:43;95623.94;;;-3.64;64.74
47636;BME280;33364;50.766;15.338;2023-04-04T05:25:12;95622.31;;;-3.75;65.29
47636;BME280;33364;50.766;15.338;2023-04-04T05:27:39;95620.25;;;-3.62;64.84
47636;BME280;33364;50.766;15.338;2023-04-04T05:30:05;95615.72;;;-3.70;65.39
47636;BME280;33364;50.766;15.338;2023-04-04T05:32:32;95618.31;;;-3.60;65.28
47636;BME280;33364;50.766;15.338;2023-04-04T05:34:58;95614.78;;;-3.59;64.99
47636;BME280;33364;50.766;15.338;2023-04-04T05:37:25;95626.38;;;-3.63;65.49
47636;BME280;33364;50.766;15.338;2023-04-04T05:39:50;95618.16;;;-3.48;66.26
47636;BME280;33364;50.766;15.338;2023-04-04T05:42:16;95613.22;;;-3.52;66.78
47636;BME280;33364;50.766;15.338;2023-04-04T05:44:42;95613.53;;;-3.45;65.91
47636;BME280;33364;50.766;15.338;2023-04-04T05:47:07;95615.00;;;-3.42;66.02
47636;BME280;33364;50.766;15.338;2023-04-04T05:49:33;95616.91;;;-3.35;65.39
47636;BME280;33364;50.766;15.338;2023-04-04T05:51:59;95611.53;;;-3.23;66.70
47636;BME280;33364;50.766;15.338;2023-04-04T05:54:24;95611.00;;;-3.27;65.42
47636;BME280;33364;50.766;15.338;2023-04-04T05:56:50;95609.69;;;-3.13;65.76
47636;BME280;33364;50.766;15.338;2023-04-04T05:59:16;95603.56;;;-3.12;64.19
47636;BME280;33364;50.766;15.338;2023-04-04T06:01:42;95602.00;;;-3.05;64.29
47636;BME280;33364;50.766;15.338;2023-04-04T06:04:08;95602.06;;;-2.87;65.42
47636;BME280;33364;50.766;15.338;2023-04-04T06:06:34;95605.41;;;-2.77;63.07
47636;BME280;33364;50.766;15.338;2023-04-04T06:09:00;95602.06;;;-2.87;62.39
47636;BME280;33364;50.766;15.338;2023-04-04T06:11:26;95597.63;;;-2.77;62.19
47636;BME280;33364;50.766;15.338;2023-04-04T06:13:52;95599.44;;;-2.87;62.00
47636;BME280;33364;50.766;15.338;2023-04-04T06:16:20;95600.34;;;-2.78;62.34
47636;BME280;33364;50.766;15.338;2023-04-04T06:18:46;95602.47;;;-2.91;61.70
47636;BME280;33364;50.766;15.338;2023-04-04T06:21:12;95602.34;;;-2.90;62.35
47636;BME280;33364;50.766;15.338;2023-04-04T06:23:38;95606.31;;;-2.86;62.85
47636;BME280;33364;50.766;15.338;2023-04-04T06:26:06;95605.69;;;-2.80;61.94
47636;BME280;33364;50.766;15.338;2023-04-04T06:28:32;95611.13;;;-2.91;63.07
47636;BME280;33364;50.766;15.338;2023-04-04T06:30:58;95613.88;;;-2.92;62.23
47636;BME280;33364;50.766;15.338;2023-04-04T06:33:24;95617.41;;;-2.93;61.06
47636;BME280;33364;50.766;15.338;2023-04-04T06:35:50;95610.09;;;-3.08;61.74
47636;BME280;33364;50.766;15.338;2023-04-04T06:38:15;95613.06;;;-3.03;61.52
47636;BME280;33364;50.766;15.338;2023-04-04T06:40:41;95620.50;;;-3.08;61.98
47636;BME280;33364;50.766;15.338;2023-04-04T06:43:07;95625.25;;;-3.03;61.11
47636;BME280;33364;50.766;15.338;2023-04-04T06:45:33;95627.44;;;-2.99;61.83
47636;BME280;33364;50.766;15.338;2023-04-04T06:48:00;95624.50;;;-2.86;61.64
47636;BME280;33364;50.766;15.338;2023-04-04T06:50:29;95623.63;;;-2.77;60.89
47636;BME280;33364;50.766;15.338;2023-04-04T06:52:56;95626.47;;;-2.70;60.84
47636;BME280;33364;50.766;15.338;2023-04-04T06:55:22;95626.03;;;-2.65;59.77
47636;BME280;33364;50.766;15.338;2023-04-04T06:57:48;95625.22;;;-2.66;59.83
47636;BME280;33364;50.766;15.338;2023-04-04T07:00:14;95626.06;;;-2.75;57.62
47636;BME280;33364;50.766;15.338;2023-04-04T07:02:40;95624.97;;;-2.72;58.29
47636;BME280;33364;50.766;15.338;2023-04-04T07:05:07;95625.44;;;-2.59;58.69
47636;BME280;33364;50.766;15.338;2023-04-04T07:07:32;95624.03;;;-2.53;58.57
47636;BME280;33364;50.766;15.338;2023-04-04T07:09:58;95621.09;;;-2.41;57.32
47636;BME280;33364;50.766;15.338;2023-04-04T07:12:24;95622.34;;;-2.45;58.91
47636;BME280;33364;50.766;15.338;2023-04-04T07:14:50;95619.34;;;-2.22;56.76
47636;BME280;33364;50.766;15.338;2023-04-04T07:17:15;95611.66;;;-1.88;55.73
47636;BME280;33364;50.766;15.338;2023-04-04T07:19:41;95610.06;;;-1.80;53.73
47636;BME280;33364;50.766;15.338;2023-04-04T07:22:07;95607.22;;;-1.43;54.61
47636;BME280;33364;50.766;15.338;2023-04-04T07:24:33;95604.81;;;-1.36;54.35
47636;BME280;33364;50.766;15.338;2023-04-04T07:26:58;95607.63;;;-0.95;54.24
47636;BME280;33364;50.766;15.338;2023-04-04T07:29:24;95608.66;;;-0.88;52.67
47636;BME280;33364;50.766;15.338;2023-04-04T07:31:50;95622.63;;;-0.54;51.77
47636;BME280;33364;50.766;15.338;2023-04-04T07:34:16;95621.38;;;-0.42;50.14
47636;BME280;33364;50.766;15.338;2023-04-04T07:36:41;95622.25;;;-0.09;49.78
47636;BME280;33364;50.766;15.338;2023-04-04T07:39:08;95622.09;;;0.26;49.38
47636;BME280;33364;50.766;15.338;2023-04-04T07:41:33;95626.34;;;-0.06;47.55
47636;BME280;33364;50.766;15.338;2023-04-04T07:44:00;95618.28;;;-0.38;47.31
47636;BME280;33364;50.766;15.338;2023-04-04T07:46:26;95631.22;;;-0.28;48.04
47636;BME280;33364;50.766;15.338;2023-04-04T07:48:54;95626.97;;;-0.21;48.47
47636;BME280;33364;50.766;15.338;2023-04-04T07:51:20;95628.81;;;0.12;46.49
47636;BME280;33364;50.766;15.338;2023-04-04T07:53:53;95620.66;;;-0.02;46.06
47636;BME280;33364;50.766;15.338;2023-04-04T07:56:18;95625.72;;;0.49;47.21
47636;BME280;33364;50.766;15.338;2023-04-04T07:58:46;95611.47;;;0.60;45.70
47636;BME280;33364;50.766;15.338;2023-04-04T08:01:12;95604.13;;;0.23;45.99
47636;BME280;33364;50.766;15.338;2023-04-04T08:03:38;95618.53;;;0.27;44.35
47636;BME280;33364;50.766;15.338;2023-04-04T08:06:03;95609.72;;;0.44;45.95
47636;BME280;33364;50.766;15.338;2023-04-04T08:08:29;95605.44;;;0.60;44.59
47636;BME280;33364;50.766;15.338;2023-04-04T08:10:55;95618.16;;;0.71;43.41
47636;BME280;33364;50.766;15.338;2023-04-04T08:13:21;95613.88;;;0.86;43.13
47636;BME280;33364;50.766;15.338;2023-04-04T08:15:47;95609.84;;;0.51;45.24
47636;BME280;33364;50.766;15.338;2023-04-04T08:18:13;95606.09;;;0.53;45.17
47636;BME280;33364;50.766;15.338;2023-04-04T08:20:40;95607.72;;;0.54;45.02
47636;BME280;33364;50.766;15.338;2023-04-04T08:23:06;95610.66;;;0.60;44.19
47636;BME280;33364;50.766;15.338;2023-04-04T08:25:31;95609.31;;;0.64;44.30
47636;BME280;33364;50.766;15.338;2023-04-04T08:27:57;95611.50;;;0.35;45.68
47636;BME280;33364;50.766;15.338;2023-04-04T08:30:23;95617.03;;;0.08;45.17
47636;BME280;33364;50.766;15.338;2023-04-04T08:32:49;95619.09;;;-0.45;45.58
47636;BME280;33364;50.766;15.338;2023-04-04T08:35:14;95623.09;;;-1.02;47.12
47636;BME280;33364;50.766;15.338;2023-04-04T08:37:44;95624.00;;;-1.19;48.37
47636;BME280;33364;50.766;15.338;2023-04-04T08:40:10;95626.97;;;-1.14;48.52
47636;BME280;33364;50.766;15.338;2023-04-04T08:42:39;95619.50;;;-1.35;49.33
47636;BME280;33364;50.766;15.338;2023-04-04T08:45:07;95617.25;;;-0.96;48.75
47636;BME280;33364;50.766;15.338;2023-04-04T08:47:36;95615.19;;;-0.25;47.66
47636;BME280;33364;50.766;15.338;2023-04-04T08:50:04;95611.78;;;-0.17;48.57
47636;BME280;33364;50.766;15.338;2023-04-04T08:52:34;95616.56;;;0.21;46.90
47636;BME280;33364;50.766;15.338;2023-04-04T08:55:01;95617.53;;;0.28;46.52
47636;BME280;33364;50.766;15.338;2023-04-04T08:57:29;95621.47;;;0.32;47.11
47636;BME280;33364;50.766;15.338;2023-04-04T08:59:55;95623.09;;;0.49;46.52
47636;BME280;33364;50.766;15.338;2023-04-04T09:02:33;95613.47;;;0.25;44.72
47636;BME280;33364;50.766;15.338;2023-04-04T09:05:01;95610.31;;;-0.28;46.26
47636;BME280;33364;50.766;15.338;2023-04-04T09:07:27;95616.66;;;-0.39;49.06
47636;BME280;33364;50.766;15.338;2023-04-04T09:09:54;95612.59;;;-0.08;46.93
47636;BME280;33364;50.766;15.338;2023-04-04T09:12:21;95618.69;;;0.25;46.76
47636;BME280;33364;50.766;15.338;2023-04-04T09:14:49;95615.22;;;-0.16;46.23
47636;BME280;33364;50.766;15.338;2023-04-04T09:17:16;95617.00;;;-0.33;45.58
47636;BME280;33364;50.766;15.338;2023-04-04T09:19:43;95619.03;;;-0.62;46.08
47636;BME280;33364;50.766;15.338;2023-04-04T09:22:08;95622.75;;;-0.72;45.91
47636;BME280;33364;50.766;15.338;2023-04-04T09:24:41;95613.25;;;-1.16;46.29
47636;BME280;33364;50.766;15.338;2023-04-04T09:27:09;95624.81;;;-1.45;47.36
47636;BME280;33364;50.766;15.338;2023-04-04T09:29:39;95618.19;;;-1.05;46.25
47636;BME280;33364;50.766;15.338;2023-04-04T09:32:13;95615.44;;;-0.61;45.75
47636;BME280;33364;50.766;15.338;2023-04-04T09:34:40;95607.72;;;-0.28;47.03
47636;BME280;33364;50.766;15.338;2023-04-04T09:37:06;95608.72;;;-0.04;46.18
47636;BME280;33364;50.766;15.338;2023-04-04T09:39:32;95602.53;;;0.13;47.15
47636;BME280;33364;50.766;15.338;2023-04-04T09:42:00;95615.91;;;-0.06;45.77
47636;BME280;33364;50.766;15.338;2023-04-04T09:44:26;95622.28;;;0.24;45.62
47636;BME280;33364;50.766;15.338;2023-04-04T09:49:49;95608.53;;;-0.11;45.24
47636;BME280;33364;50.766;15.338;2023-04-04T09:52:19;95604.09;;;-0.27;46.40
47636;BME280;33364;50.766;15.338;2023-04-04T09:55:01;95609.63;;;-0.38;46.13
47636;BME280;33364;50.766;15.338;2023-04-04T09:57:28;95607.38;;;-0.25;46.74
47636;BME280;33364;50.766;15.338;2023-04-04T10:00:18;95603.94;;;-0.25;47.66
47636;BME280;33364;50.766;15.338;2023-04-04T10:02:47;95611.44;;;-0.30;47.45
47636;BME280;33364;50.766;15.338;2023-04-04T10:05:15;95620.53;;;-0.51;46.72
47636;BME280;33364;50.766;15.338;2023-04-04T10:07:41;95619.16;;;-0.71;46.85
47636;BME280;33364;50.766;15.338;2023-04-04T10:10:08;95625.00;;;-0.27;46.91
47636;BME280;33364;50.766;15.338;2023-04-04T10:12:37;95619.66;;;0.24;45.81
47636;BME280;33364;50.766;15.338;2023-04-04T10:15:03;95611.47;;;0.52;44.49
47636;BME280;33364;50.766;15.338;2023-04-04T10:17:37;95624.06;;;0.48;45.17
47636;BME280;33364;50.766;15.338;2023-04-04T10:20:05;95621.13;;;0.02;44.71
47636;BME280;33364;50.766;15.338;2023-04-04T10:22:33;95615.44;;;0.07;44.50
47636;BME280;33364;50.766;15.338;2023-04-04T10:24:59;95613.75;;;-0.11;44.85
47636;BME280;33364;50.766;15.338;2023-04-04T10:27:26;95618.34;;;-0.05;45.81
47636;BME280;33364;50.766;15.338;2023-04-04T10:29:52;95610.84;;;0.01;45.21
47636;BME280;33364;50.766;15.338;2023-04-04T10:32:25;95618.53;;;0.35;46.10
47636;BME280;33364;50.766;15.338;2023-04-04T10:34:57;95616.06;;;0.01;46.74
47636;BME280;33364;50.766;15.338;2023-04-04T10:37:27;95619.31;;;0.03;45.15
47636;BME280;33364;50.766;15.338;2023-04-04T10:42:37;95612.81;;;1.12;42.52
47636;BME280;33364;50.766;15.338;2023-04-04T10:45:05;95608.84;;;1.24;43.94
47636;BME280;33364;50.766;15.338;2023-04-04T10:47:32;95607.50;;;1.91;41.82
47636;BME280;33364;50.766;15.338;2023-04-04T10:49:58;95605.19;;;2.19;40.62
47636;BME280;33364;50.766;15.338;2023-04-04T10:52:27;95602.38;;;2.44;40.60
47636;BME280;33364;50.766;15.338;2023-04-04T10:54:58;95610.72;;;2.01;41.67
47636;BME280;33364;50.766;15.338;2023-04-04T10:57:24;95616.56;;;1.57;43.42
47636;BME280;33364;50.766;15.338;2023-04-04T11:00:10;95610.19;;;1.12;42.05
47636;BME280;33364;50.766;15.338;2023-04-04T11:08:02;95606.00;;;0.95;42.83
47636;BME280;33364;50.766;15.338;2023-04-04T11:10:34;95610.69;;;0.35;44.26
47636;BME280;33364;50.766;15.338;2023-04-04T11:13:03;95600.84;;;0.53;44.80
47636;BME280;33364;50.766;15.338;2023-04-04T11:18:20;95601.31;;;0.73;44.21
47636;BME280;33364;50.766;15.338;2023-04-04T11:20:47;95593.50;;;1.21;42.45
47636;BME280;33364;50.766;15.338;2023-04-04T11:23:16;95600.69;;;1.11;43.35
47636;BME280;33364;50.766;15.338;2023-04-04T11:25:53;95601.34;;;1.21;42.89
47636;BME280;33364;50.766;15.338;2023-04-04T11:34:06;95614.59;;;0.23;43.19
47636;BME280;33364;50.766;15.338;2023-04-04T11:42:01;95599.66;;;0.89;41.90
47636;BME280;33364;50.766;15.338;2023-04-04T11:44:29;95603.31;;;0.55;40.82
47636;BME280;33364;50.766;15.338;2023-04-04T11:49:38;95585.00;;;1.11;39.98
47636;BME280;33364;50.766;15.338;2023-04-04T11:52:12;95593.38;;;1.06;41.40
47636;BME280;33364;50.766;15.338;2023-04-04T11:54:41;95587.34;;;1.37;41.88
47636;BME280;33364;50.766;15.338;2023-04-04T11:57:10;95584.03;;;1.75;42.26
47636;BME280;33364;50.766;15.338;2023-04-04T11:59:40;95575.41;;;1.03;40.99
47636;BME280;33364;50.766;15.338;2023-04-04T12:02:08;95579.84;;;0.86;42.12
47636;BME280;33364;50.766;15.338;2023-04-04T12:04:44;95577.09;;;0.80;42.22
47636;BME280;33364;50.766;15.338;2023-04-04T12:07:11;95583.34;;;0.70;43.15
47636;BME280;33364;50.766;15.338;2023-04-04T12:09:38;95577.78;;;0.65;41.88
47636;BME280;33364;50.766;15.338;2023-04-04T12:12:05;95594.94;;;0.76;43.39
47636;BME280;33364;50.766;15.338;2023-04-04T12:14:32;95591.19;;;0.79;42.90
47636;BME280;33364;50.766;15.338;2023-04-04T12:16:58;95582.69;;;0.68;43.44
47636;BME280;33364;50.766;15.338;2023-04-04T12:19:26;95588.28;;;0.49;43.94
47636;BME280;33364;50.766;15.338;2023-04-04T12:21:53;95595.81;;;0.27;43.47
47636;BME280;33364;50.766;15.338;2023-04-04T12:24:19;95586.50;;;-0.08;44.72
47636;BME280;33364;50.766;15.338;2023-04-04T12:26:47;95597.47;;;0.12;44.59
47636;BME280;33364;50.766;15.338;2023-04-04T12:29:15;95577.97;;;0.39;44.37
47636;BME280;33364;50.766;15.338;2023-04-04T12:31:43;95580.91;;;0.69;42.42
47636;BME280;33364;50.766;15.338;2023-04-04T12:34:17;95559.56;;;0.97;42.25
47636;BME280;33364;50.766;15.338;2023-04-04T12:36:50;95563.59;;;1.39;41.21
47636;BME280;33364;50.766;15.338;2023-04-04T12:39:18;95560.63;;;1.10;40.97
47636;BME280;33364;50.766;15.338;2023-04-04T12:41:51;95560.47;;;0.64;41.14
47636;BME280;33364;50.766;15.338;2023-04-04T12:46:59;95562.09;;;0.65;43.73
47636;BME280;33364;50.766;15.338;2023-04-04T12:49:29;95554.25;;;0.57;42.77
47636;BME280;33364;50.766;15.338;2023-04-04T12:51:55;95554.41;;;0.64;42.62
47636;BME280;33364;50.766;15.338;2023-04-04T12:54:31;95544.59;;;1.14;41.66
47636;BME280;33364;50.766;15.338;2023-04-04T12:56:57;95537.13;;;1.34;42.34
47636;BME280;33364;50.766;15.338;2023-04-04T12:59:28;95536.16;;;1.35;41.95
47636;BME280;33364;50.766;15.338;2023-04-04T13:01:54;95545.69;;;1.19;42.06
47636;BME280;33364;50.766;15.338;2023-04-04T13:04:21;95558.63;;;0.81;42.67
47636;BME280;33364;50.766;15.338;2023-04-04T13:06:47;95554.41;;;0.64;43.69
47636;BME280;33364;50.766;15.338;2023-04-04T13:09:20;95548.22;;;0.57;43.48
47636;BME280;33364;50.766;15.338;2023-04-04T13:12:03;95549.59;;;0.36;43.29
47636;BME280;33364;50.766;15.338;2023-04-04T13:17:21;95552.56;;;0.16;45.52
47636;BME280;33364;50.766;15.338;2023-04-04T13:19:47;95544.69;;;0.25;45.84
47636;BME280;33364;50.766;15.338;2023-04-04T13:22:12;95555.00;;;0.26;44.27
47636;BME280;33364;50.766;15.338;2023-04-04T13:24:38;95551.19;;;0.37;44.60
47636;BME280;33364;50.766;15.338;2023-04-04T13:27:04;95537.03;;;0.87;43.31
47636;BME280;33364;50.766;15.338;2023-04-04T13:29:30;95540.72;;;1.01;41.97